sensor_id;sensor_type;location;lat;lon;timestamp;temperature;humidity
40257;DHT22;25977;45.462;9.210;2022-11-15T00:01:53;12.50;89.50
40257;DHT22;25977;45.462;9.210;2022-11-15T00:04:37;12.50;89.50
40257;DHT22;25977;45.462;9.210;2022-11-15T00:07:21;12.50;89.60
40257;DHT22;25977;45.462;9.210;2022-11-15T00:10:06;12.50;89.50
40257;DHT22;25977;45.462;9.210;2022-11-15T00:12:50;12.50;89.40
40257;DHT22;25977;45.462;9.210;2022-11-15T00:15:36;12.50;89.20
40257;DHT22;25977;45.462;9.210;2022-11-15T00:18:20;12.50;89.20
40257;DHT22;25977;45.462;9.210;2022-11-15T00:21:06;12.50;89.10
40257;DHT22;25977;45.462;9.210;2022-11-15T00:23:51;12.40;89.10
40257;DHT22;25977;45.462;9.210;2022-11-15T00:26:35;12.40;89.10
40257;DHT22;25977;45.462;9.210;2022-11-15T00:29:19;12.40;89.20
40257;DHT22;25977;45.462;9.210;2022-11-15T00:32:04;12.30;89.00
40257;DHT22;25977;45.462;9.210;2022-11-15T00:34:48;12.40;89.10
40257;DHT22;25977;45.462;9.210;2022-11-15T00:37:32;12.40;89.10
40257;DHT22;25977;45.462;9.210;2022-11-15T00:40:17;12.40;89.10
40257;DHT22;25977;45.462;9.210;2022-11-15T00:43:00;12.30;89.10
40257;DHT22;25977;45.462;9.210;2022-11-15T00:45:45;12.40;89.20
40257;DHT22;25977;45.462;9.210;2022-11-15T00:48:29;12.30;89.20
40257;DHT22;25977;45.462;9.210;2022-11-15T00:51:13;12.30;89.30
40257;DHT22;25977;45.462;9.210;2022-11-15T00:53:57;12.30;89.40
40257;DHT22;25977;45.462;9.210;2022-11-15T00:56:42;12.30;89.40
40257;DHT22;25977;45.462;9.210;2022-11-15T00:59:26;12.30;89.30
40257;DHT22;25977;45.462;9.210;2022-11-15T01:02:10;12.30;89.40
40257;DHT22;25977;45.462;9.210;2022-11-15T01:04:54;12.30;89.30
40257;DHT22;25977;45.462;9.210;2022-11-15T01:07:38;12.20;89.10
40257;DHT22;25977;45.462;9.210;2022-11-15T01:10:23;12.20;89.10
40257;DHT22;25977;45.462;9.210;2022-11-15T01:13:08;12.30;89.10
40257;DHT22;25977;45.462;9.210;2022-11-15T01:15:52;12.20;89.00
40257;DHT22;25977;45.462;9.210;2022-11-15T01:18:36;12.20;89.00
40257;DHT22;25977;45.462;9.210;2022-11-15T01:21:20;12.20;89.00
40257;DHT22;25977;45.462;9.210;2022-11-15T01:24:04;12.20;89.00
40257;DHT22;25977;45.462;9.210;2022-11-15T01:26:49;12.20;89.00
40257;DHT22;25977;45.462;9.210;2022-11-15T01:29:33;12.20;88.90
40257;DHT22;25977;45.462;9.210;2022-11-15T01:32:17;12.20;89.00
40257;DHT22;25977;45.462;9.210;2022-11-15T01:35:01;12.10;88.90
40257;DHT22;25977;45.462;9.210;2022-11-15T01:37:46;13.50;89.80
40257;DHT22;25977;45.462;9.210;2022-11-15T01:40:30;12.10;89.00
40257;DHT22;25977;45.462;9.210;2022-11-15T01:43:23;12.00;89.00
40257;DHT22;25977;45.462;9.210;2022-11-15T01:46:29;12.10;89.00
40257;DHT22;25977;45.462;9.210;2022-11-15T01:49:17;12.00;88.90
40257;DHT22;25977;45.462;9.210;2022-11-15T01:52:04;12.00;88.80
40257;DHT22;25977;45.462;9.210;2022-11-15T01:54:58;12.00;88.80
40257;DHT22;25977;45.462;9.210;2022-11-15T01:57:47;12.00;88.70
40257;DHT22;25977;45.462;9.210;2022-11-15T02:00:31;12.00;88.50
40257;DHT22;25977;45.462;9.210;2022-11-15T02:03:16;12.00;88.40
40257;DHT22;25977;45.462;9.210;2022-11-15T02:06:01;12.00;88.30
40257;DHT22;25977;45.462;9.210;2022-11-15T02:08:46;11.90;88.40
40257;DHT22;25977;45.462;9.210;2022-11-15T02:11:30;11.80;88.40
40257;DHT22;25977;45.462;9.210;2022-11-15T02:14:16;11.90;88.60
40257;DHT22;25977;45.462;9.210;2022-11-15T02:17:26;11.90;88.60
40257;DHT22;25977;45.462;9.210;2022-11-15T02:32:33;11.90;88.20
40257;DHT22;25977;45.462;9.210;2022-11-15T02:35:40;11.90;88.20
40257;DHT22;25977;45.462;9.210;2022-11-15T02:41:50;11.90;88.20
40257;DHT22;25977;45.462;9.210;2022-11-15T02:44:44;11.90;88.30
40257;DHT22;25977;45.462;9.210;2022-11-15T02:47:34;11.90;88.30
40257;DHT22;25977;45.462;9.210;2022-11-15T02:50:25;11.90;88.30
40257;DHT22;25977;45.462;9.210;2022-11-15T02:53:10;11.90;88.30
40257;DHT22;25977;45.462;9.210;2022-11-15T02:55:55;11.90;88.30
40257;DHT22;25977;45.462;9.210;2022-11-15T03:02:04;11.90;88.30
40257;DHT22;25977;45.462;9.210;2022-11-15T03:16:20;11.70;88.00
40257;DHT22;25977;45.462;9.210;2022-11-15T03:22:16;11.60;88.60
40257;DHT22;25977;45.462;9.210;2022-11-15T03:25:05;11.50;88.60
40257;DHT22;25977;45.462;9.210;2022-11-15T03:27:53;11.60;88.60
40257;DHT22;25977;45.462;9.210;2022-11-15T03:30:39;11.60;88.60
40257;DHT22;25977;45.462;9.210;2022-11-15T03:33:24;11.70;88.50
40257;DHT22;25977;45.462;9.210;2022-11-15T03:36:08;11.50;88.60
40257;DHT22;25977;45.462;9.210;2022-11-15T03:38:56;11.60;88.60
40257;DHT22;25977;45.462;9.210;2022-11-15T03:44:59;11.50;88.30
40257;DHT22;25977;45.462;9.210;2022-11-15T03:50:45;11.70;88.60
40257;DHT22;25977;45.462;9.210;2022-11-15T03:53:30;11.70;88.50
40257;DHT22;25977;45.462;9.210;2022-11-15T03:56:15;11.70;88.50
40257;DHT22;25977;45.462;9.210;2022-11-15T03:58:59;11.70;88.40
40257;DHT22;25977;45.462;9.210;2022-11-15T04:01:43;11.70;88.50
40257;DHT22;25977;45.462;9.210;2022-11-15T04:04:29;11.70;88.40
40257;DHT22;25977;45.462;9.210;2022-11-15T04:07:13;11.70;88.30
40257;DHT22;25977;45.462;9.210;2022-11-15T04:09:57;11.60;88.30
40257;DHT22;25977;45.462;9.210;2022-11-15T04:12:47;11.70;88.40
40257;DHT22;25977;45.462;9.210;2022-11-15T04:15:31;11.70;88.40
40257;DHT22;25977;45.462;9.210;2022-11-15T04:18:15;11.60;88.40
40257;DHT22;25977;45.462;9.210;2022-11-15T04:21:00;11.60;88.50
40257;DHT22;25977;45.462;9.210;2022-11-15T04:27:02;11.70;88.60
40257;DHT22;25977;45.462;9.210;2022-11-15T04:29:46;11.70;88.60
40257;DHT22;25977;45.462;9.210;2022-11-15T04:32:30;11.80;88.60
40257;DHT22;25977;45.462;9.210;2022-11-15T04:35:14;11.80;88.40
40257;DHT22;25977;45.462;9.210;2022-11-15T04:37:59;11.80;88.40
40257;DHT22;25977;45.462;9.210;2022-11-15T04:40:44;11.80;88.50
40257;DHT22;25977;45.462;9.210;2022-11-15T04:43:29;11.80;88.40
40257;DHT22;25977;45.462;9.210;2022-11-15T04:46:12;11.80;88.40
40257;DHT22;25977;45.462;9.210;2022-11-15T04:48:57;11.90;88.40
40257;DHT22;25977;45.462;9.210;2022-11-15T04:51:41;11.80;88.30
40257;DHT22;25977;45.462;9.210;2022-11-15T04:54:25;11.90;88.20
40257;DHT22;25977;45.462;9.210;2022-11-15T04:57:09;11.90;88.10
40257;DHT22;25977;45.462;9.210;2022-11-15T04:59:53;11.90;88.00
40257;DHT22;25977;45.462;9.210;2022-11-15T05:02:37;12.00;88.10
40257;DHT22;25977;45.462;9.210;2022-11-15T05:05:41;12.00;88.00
40257;DHT22;25977;45.462;9.210;2022-11-15T05:08:26;12.00;88.00
40257;DHT22;25977;45.462;9.210;2022-11-15T05:11:10;12.00;87.90
40257;DHT22;25977;45.462;9.210;2022-11-15T05:13:54;12.00;87.90
40257;DHT22;25977;45.462;9.210;2022-11-15T05:16:39;12.00;87.90
40257;DHT22;25977;45.462;9.210;2022-11-15T05:19:23;12.10;88.00
40257;DHT22;25977;45.462;9.210;2022-11-15T05:22:08;12.10;88.10
40257;DHT22;25977;45.462;9.210;2022-11-15T05:24:53;12.10;88.20
40257;DHT22;25977;45.462;9.210;2022-11-15T05:27:37;12.00;88.10
40257;DHT22;25977;45.462;9.210;2022-11-15T05:30:21;11.90;88.70
40257;DHT22;25977;45.462;9.210;2022-11-15T05:33:05;12.00;88.50
40257;DHT22;25977;45.462;9.210;2022-11-15T05:35:56;11.80;88.20
40257;DHT22;25977;45.462;9.210;2022-11-15T05:38:43;11.80;88.00
40257;DHT22;25977;45.462;9.210;2022-11-15T05:41:36;11.50;88.50
40257;DHT22;25977;45.462;9.210;2022-11-15T05:44:24;11.50;88.80
40257;DHT22;25977;45.462;9.210;2022-11-15T05:47:13;11.70;88.30
40257;DHT22;25977;45.462;9.210;2022-11-15T05:49:57;11.70;88.00
40257;DHT22;25977;45.462;9.210;2022-11-15T05:52:42;11.60;87.80
40257;DHT22;25977;45.462;9.210;2022-11-15T05:55:27;11.70;87.90
40257;DHT22;25977;45.462;9.210;2022-11-15T05:58:11;11.50;88.00
40257;DHT22;25977;45.462;9.210;2022-11-15T06:00:55;11.50;88.70
40257;DHT22;25977;45.462;9.210;2022-11-15T06:03:39;11.50;88.80
40257;DHT22;25977;45.462;9.210;2022-11-15T06:06:23;11.40;89.20
40257;DHT22;25977;45.462;9.210;2022-11-15T06:09:08;11.40;89.40
40257;DHT22;25977;45.462;9.210;2022-11-15T06:11:52;11.40;89.40
40257;DHT22;25977;45.462;9.210;2022-11-15T06:14:36;11.40;89.30
40257;DHT22;25977;45.462;9.210;2022-11-15T06:17:20;11.50;89.20
40257;DHT22;25977;45.462;9.210;2022-11-15T06:20:04;11.60;89.20
40257;DHT22;25977;45.462;9.210;2022-11-15T06:22:49;11.50;89.00
40257;DHT22;25977;45.462;9.210;2022-11-15T06:25:33;11.50;88.90
40257;DHT22;25977;45.462;9.210;2022-11-15T06:28:17;11.50;88.90
40257;DHT22;25977;45.462;9.210;2022-11-15T06:31:06;11.50;88.90
40257;DHT22;25977;45.462;9.210;2022-11-15T06:33:51;11.60;89.00
40257;DHT22;25977;45.462;9.210;2022-11-15T06:36:36;11.60;89.20
40257;DHT22;25977;45.462;9.210;2022-11-15T06:39:20;11.50;89.20
40257;DHT22;25977;45.462;9.210;2022-11-15T06:42:04;11.50;89.10
40257;DHT22;25977;45.462;9.210;2022-11-15T06:44:48;11.50;89.30
40257;DHT22;25977;45.462;9.210;2022-11-15T06:47:32;11.50;89.40
40257;DHT22;25977;45.462;9.210;2022-11-15T06:50:16;11.50;89.50
40257;DHT22;25977;45.462;9.210;2022-11-15T06:53:02;11.50;89.40
40257;DHT22;25977;45.462;9.210;2022-11-15T06:55:47;11.50;89.20
40257;DHT22;25977;45.462;9.210;2022-11-15T06:58:31;11.60;89.30
40257;DHT22;25977;45.462;9.210;2022-11-15T07:01:17;11.60;89.40
40257;DHT22;25977;45.462;9.210;2022-11-15T07:04:01;11.60;89.30
40257;DHT22;25977;45.462;9.210;2022-11-15T07:06:48;11.60;89.20
40257;DHT22;25977;45.462;9.210;2022-11-15T07:09:32;11.60;89.10
40257;DHT22;25977;45.462;9.210;2022-11-15T07:12:17;11.70;89.00
40257;DHT22;25977;45.462;9.210;2022-11-15T07:15:00;11.70;89.00
40257;DHT22;25977;45.462;9.210;2022-11-15T07:17:45;11.70;89.00
40257;DHT22;25977;45.462;9.210;2022-11-15T07:20:29;11.70;89.00
40257;DHT22;25977;45.462;9.210;2022-11-15T07:23:13;11.70;89.10
40257;DHT22;25977;45.462;9.210;2022-11-15T07:25:57;11.70;89.00
40257;DHT22;25977;45.462;9.210;2022-11-15T07:28:42;11.80;89.00
40257;DHT22;25977;45.462;9.210;2022-11-15T07:31:26;11.80;88.90
40257;DHT22;25977;45.462;9.210;2022-11-15T07:34:10;11.80;88.90
40257;DHT22;25977;45.462;9.210;2022-11-15T07:36:54;11.80;89.20
40257;DHT22;25977;45.462;9.210;2022-11-15T07:39:39;11.90;89.50
40257;DHT22;25977;45.462;9.210;2022-11-15T07:42:23;11.80;89.60
40257;DHT22;25977;45.462;9.210;2022-11-15T07:45:26;11.80;89.60
40257;DHT22;25977;45.462;9.210;2022-11-15T07:48:11;11.90;90.00
40257;DHT22;25977;45.462;9.210;2022-11-15T07:50:55;11.90;90.00
40257;DHT22;25977;45.462;9.210;2022-11-15T07:53:39;11.90;89.90
40257;DHT22;25977;45.462;9.210;2022-11-15T07:56:23;12.00;90.00
40257;DHT22;25977;45.462;9.210;2022-11-15T07:59:07;12.00;90.10
40257;DHT22;25977;45.462;9.210;2022-11-15T08:01:51;12.00;90.10
40257;DHT22;25977;45.462;9.210;2022-11-15T08:04:35;12.00;90.00
40257;DHT22;25977;45.462;9.210;2022-11-15T08:07:19;12.00;90.10
40257;DHT22;25977;45.462;9.210;2022-11-15T08:10:04;12.10;90.10
40257;DHT22;25977;45.462;9.210;2022-11-15T08:12:58;12.00;90.00
40257;DHT22;25977;45.462;9.210;2022-11-15T08:15:43;12.00;90.00
40257;DHT22;25977;45.462;9.210;2022-11-15T08:18:28;12.00;89.90
40257;DHT22;25977;45.462;9.210;2022-11-15T08:21:16;12.00;90.00
40257;DHT22;25977;45.462;9.210;2022-11-15T08:24:01;12.00;90.10
40257;DHT22;25977;45.462;9.210;2022-11-15T08:26:46;12.00;90.20
40257;DHT22;25977;45.462;9.210;2022-11-15T08:29:30;12.10;90.20
40257;DHT22;25977;45.462;9.210;2022-11-15T08:32:14;12.10;90.30
40257;DHT22;25977;45.462;9.210;2022-11-15T08:34:59;12.00;90.50
40257;DHT22;25977;45.462;9.210;2022-11-15T08:37:43;12.10;90.50
40257;DHT22;25977;45.462;9.210;2022-11-15T08:40:28;12.10;90.50
40257;DHT22;25977;45.462;9.210;2022-11-15T08:43:12;12.20;90.50
40257;DHT22;25977;45.462;9.210;2022-11-15T08:45:57;12.20;90.50
40257;DHT22;25977;45.462;9.210;2022-11-15T08:48:41;12.20;90.70
40257;DHT22;25977;45.462;9.210;2022-11-15T08:51:25;12.10;90.70
40257;DHT22;25977;45.462;9.210;2022-11-15T08:54:09;12.10;90.80
40257;DHT22;25977;45.462;9.210;2022-11-15T08:56:53;12.20;90.90
40257;DHT22;25977;45.462;9.210;2022-11-15T08:59:38;12.20;91.00
40257;DHT22;25977;45.462;9.210;2022-11-15T09:02:22;12.20;91.00
40257;DHT22;25977;45.462;9.210;2022-11-15T09:05:07;12.30;91.00
40257;DHT22;25977;45.462;9.210;2022-11-15T09:07:55;12.30;91.10
40257;DHT22;25977;45.462;9.210;2022-11-15T09:10:39;12.30;91.10
40257;DHT22;25977;45.462;9.210;2022-11-15T09:13:24;12.30;91.10
40257;DHT22;25977;45.462;9.210;2022-11-15T09:16:08;12.30;91.10
40257;DHT22;25977;45.462;9.210;2022-11-15T09:18:53;12.30;91.00
40257;DHT22;25977;45.462;9.210;2022-11-15T09:21:38;12.40;90.90
40257;DHT22;25977;45.462;9.210;2022-11-15T09:24:22;12.40;90.90
40257;DHT22;25977;45.462;9.210;2022-11-15T09:27:09;12.40;90.90
40257;DHT22;25977;45.462;9.210;2022-11-15T09:29:54;12.40;90.90
40257;DHT22;25977;45.462;9.210;2022-11-15T09:32:38;12.40;90.90
40257;DHT22;25977;45.462;9.210;2022-11-15T09:35:25;12.40;91.00
40257;DHT22;25977;45.462;9.210;2022-11-15T09:38:09;12.40;91.00
40257;DHT22;25977;45.462;9.210;2022-11-15T09:41:17;12.50;91.10
40257;DHT22;25977;45.462;9.210;2022-11-15T09:50:49;12.50;91.20
40257;DHT22;25977;45.462;9.210;2022-11-15T09:56:27;12.50;90.90
40257;DHT22;25977;45.462;9.210;2022-11-15T10:01:49;12.50;90.40
40257;DHT22;25977;45.462;9.210;2022-11-15T10:04:21;12.50;90.30
40257;DHT22;25977;45.462;9.210;2022-11-15T10:07:13;12.40;90.40
40257;DHT22;25977;45.462;9.210;2022-11-15T10:09:53;12.50;90.40
40257;DHT22;25977;45.462;9.210;2022-11-15T10:12:22;12.50;90.50
40257;DHT22;25977;45.462;9.210;2022-11-15T10:14:50;12.50;90.60
40257;DHT22;25977;45.462;9.210;2022-11-15T10:18:14;12.50;90.70
40257;DHT22;25977;45.462;9.210;2022-11-15T10:20:26;12.50;90.60
40257;DHT22;25977;45.462;9.210;2022-11-15T10:23:00;12.50;90.60
40257;DHT22;25977;45.462;9.210;2022-11-15T10:25:28;12.60;90.70
40257;DHT22;25977;45.462;9.210;2022-11-15T10:28:17;12.60;90.70
40257;DHT22;25977;45.462;9.210;2022-11-15T10:30:49;12.60;90.90
40257;DHT22;25977;45.462;9.210;2022-11-15T10:46:39;12.50;90.80
40257;DHT22;25977;45.462;9.210;2022-11-15T10:49:19;12.60;90.90
40257;DHT22;25977;45.462;9.210;2022-11-15T10:51:54;12.60;90.80
40257;DHT22;25977;45.462;9.210;2022-11-15T10:54:46;12.60;90.60
40257;DHT22;25977;45.462;9.210;2022-11-15T10:57:22;12.60;90.60
40257;DHT22;25977;45.462;9.210;2022-11-15T10:59:54;12.60;90.60
40257;DHT22;25977;45.462;9.210;2022-11-15T11:02:39;12.40;90.80
40257;DHT22;25977;45.462;9.210;2022-11-15T11:05:36;12.50;90.80
40257;DHT22;25977;45.462;9.210;2022-11-15T11:10:31;12.50;90.80
40257;DHT22;25977;45.462;9.210;2022-11-15T11:13:27;12.40;90.70
40257;DHT22;25977;45.462;9.210;2022-11-15T11:21:19;12.40;90.90
40257;DHT22;25977;45.462;9.210;2022-11-15T11:23:51;12.40;91.10
40257;DHT22;25977;45.462;9.210;2022-11-15T11:37:32;12.50;91.40
40257;DHT22;25977;45.462;9.210;2022-11-15T11:46:05;12.40;91.60
40257;DHT22;25977;45.462;9.210;2022-11-15T11:48:42;12.40;91.40
40257;DHT22;25977;45.462;9.210;2022-11-15T11:54:00;12.40;91.30
40257;DHT22;25977;45.462;9.210;2022-11-15T11:56:32;12.40;91.40
40257;DHT22;25977;45.462;9.210;2022-11-15T11:59:37;12.30;91.00
40257;DHT22;25977;45.462;9.210;2022-11-15T12:04:50;12.30;91.20
40257;DHT22;25977;45.462;9.210;2022-11-15T12:07:31;12.30;91.40
40257;DHT22;25977;45.462;9.210;2022-11-15T12:15:37;12.30;91.30
40257;DHT22;25977;45.462;9.210;2022-11-15T12:18:07;12.30;91.30
40257;DHT22;25977;45.462;9.210;2022-11-15T12:20:36;12.20;91.20
40257;DHT22;25977;45.462;9.210;2022-11-15T12:25:43;12.20;91.30
40257;DHT22;25977;45.462;9.210;2022-11-15T12:28:47;12.10;91.40
40257;DHT22;25977;45.462;9.210;2022-11-15T12:31:17;12.10;91.40
40257;DHT22;25977;45.462;9.210;2022-11-15T12:33:47;12.10;91.40
40257;DHT22;25977;45.462;9.210;2022-11-15T12:38:59;12.20;91.40
40257;DHT22;25977;45.462;9.210;2022-11-15T12:41:32;12.30;91.30
40257;DHT22;25977;45.462;9.210;2022-11-15T12:43:58;12.20;91.30
40257;DHT22;25977;45.462;9.210;2022-11-15T12:49:03;12.30;91.10
40257;DHT22;25977;45.462;9.210;2022-11-15T13:02:43;12.00;91.40
40257;DHT22;25977;45.462;9.210;2022-11-15T13:17:48;12.30;91.40
40257;DHT22;25977;45.462;9.210;2022-11-15T13:22:44;12.20;90.70
40257;DHT22;25977;45.462;9.210;2022-11-15T13:27:50;12.10;91.00
40257;DHT22;25977;45.462;9.210;2022-11-15T13:30:24;12.00;91.10
40257;DHT22;25977;45.462;9.210;2022-11-15T13:32:51;12.10;91.20
40257;DHT22;25977;45.462;9.210;2022-11-15T13:35:28;12.10;91.10
40257;DHT22;25977;45.462;9.210;2022-11-15T13:37:56;12.00;91.30
40257;DHT22;25977;45.462;9.210;2022-11-15T13:40:27;12.10;91.30
40257;DHT22;25977;45.462;9.210;2022-11-15T13:42:56;12.20;91.30
40257;DHT22;25977;45.462;9.210;2022-11-15T13:45:22;12.20;91.20
40257;DHT22;25977;45.462;9.210;2022-11-15T13:47:53;12.10;91.40
40257;DHT22;25977;45.462;9.210;2022-11-15T13:50:21;12.20;91.40
40257;DHT22;25977;45.462;9.210;2022-11-15T13:52:49;12.20;91.50
40257;DHT22;25977;45.462;9.210;2022-11-15T13:55:18;12.30;91.30
40257;DHT22;25977;45.462;9.210;2022-11-15T13:57:53;12.30;91.30
40257;DHT22;25977;45.462;9.210;2022-11-15T14:00:41;12.30;91.30
40257;DHT22;25977;45.462;9.210;2022-11-15T14:03:27;12.30;91.10
40257;DHT22;25977;45.462;9.210;2022-11-15T14:06:08;12.30;91.00
40257;DHT22;25977;45.462;9.210;2022-11-15T14:08:39;12.30;90.90
40257;DHT22;25977;45.462;9.210;2022-11-15T14:11:19;12.30;90.90
40257;DHT22;25977;45.462;9.210;2022-11-15T14:16:46;12.30;91.10
40257;DHT22;25977;45.462;9.210;2022-11-15T14:19:34;12.30;91.20
40257;DHT22;25977;45.462;9.210;2022-11-15T14:22:26;12.10;91.10
40257;DHT22;25977;45.462;9.210;2022-11-15T14:28:37;12.00;91.80
40257;DHT22;25977;45.462;9.210;2022-11-15T14:31:30;12.00;92.00
40257;DHT22;25977;45.462;9.210;2022-11-15T14:33:58;12.20;91.90
40257;DHT22;25977;45.462;9.210;2022-11-15T14:36:24;11.90;92.00
40257;DHT22;25977;45.462;9.210;2022-11-15T14:38:49;12.00;92.10
40257;DHT22;25977;45.462;9.210;2022-11-15T14:41:24;12.10;91.70
40257;DHT22;25977;45.462;9.210;2022-11-15T14:44:15;12.10;91.50
40257;DHT22;25977;45.462;9.210;2022-11-15T14:46:46;11.70;91.50
40257;DHT22;25977;45.462;9.210;2022-11-15T14:49:14;11.50;92.10
40257;DHT22;25977;45.462;9.210;2022-11-15T14:51:40;11.70;92.20
40257;DHT22;25977;45.462;9.210;2022-11-15T14:54:10;11.80;91.90
40257;DHT22;25977;45.462;9.210;2022-11-15T14:56:36;12.00;91.80
40257;DHT22;25977;45.462;9.210;2022-11-15T14:59:01;12.00;91.70
40257;DHT22;25977;45.462;9.210;2022-11-15T15:01:27;12.10;91.50
40257;DHT22;25977;45.462;9.210;2022-11-15T15:03:53;12.00;91.60
40257;DHT22;25977;45.462;9.210;2022-11-15T15:06:22;12.00;91.60
40257;DHT22;25977;45.462;9.210;2022-11-15T15:08:48;12.00;91.80
40257;DHT22;25977;45.462;9.210;2022-11-15T15:11:25;12.00;91.90
40257;DHT22;25977;45.462;9.210;2022-11-15T15:13:52;12.00;91.90
40257;DHT22;25977;45.462;9.210;2022-11-15T15:16:19;12.00;91.90
40257;DHT22;25977;45.462;9.210;2022-11-15T15:18:44;12.00;92.00
40257;DHT22;25977;45.462;9.210;2022-11-15T15:21:24;11.80;92.40
40257;DHT22;25977;45.462;9.210;2022-11-15T15:23:51;11.80;92.40
40257;DHT22;25977;45.462;9.210;2022-11-15T15:26:17;11.60;92.50
40257;DHT22;25977;45.462;9.210;2022-11-15T15:28:44;11.70;92.70
40257;DHT22;25977;45.462;9.210;2022-11-15T15:31:10;11.80;92.50
40257;DHT22;25977;45.462;9.210;2022-11-15T15:33:36;11.80;92.30
40257;DHT22;25977;45.462;9.210;2022-11-15T15:36:02;11.70;92.60
40257;DHT22;25977;45.462;9.210;2022-11-15T15:38:28;11.70;92.70
40257;DHT22;25977;45.462;9.210;2022-11-15T15:40:54;11.70;92.60
40257;DHT22;25977;45.462;9.210;2022-11-15T15:43:20;11.70;92.70
40257;DHT22;25977;45.462;9.210;2022-11-15T15:45:46;11.80;92.40
40257;DHT22;25977;45.462;9.210;2022-11-15T15:48:16;11.70;92.40
40257;DHT22;25977;45.462;9.210;2022-11-15T15:50:42;11.90;92.30
40257;DHT22;25977;45.462;9.210;2022-11-15T15:53:10;12.00;92.10
40257;DHT22;25977;45.462;9.210;2022-11-15T15:55:36;12.00;92.10
40257;DHT22;25977;45.462;9.210;2022-11-15T15:58:03;12.00;91.90
40257;DHT22;25977;45.462;9.210;2022-11-15T16:00:28;11.80;92.00
40257;DHT22;25977;45.462;9.210;2022-11-15T16:02:54;11.60;92.30
40257;DHT22;25977;45.462;9.210;2022-11-15T16:05:21;11.60;92.30
40257;DHT22;25977;45.462;9.210;2022-11-15T16:07:47;11.50;92.70
40257;DHT22;25977;45.462;9.210;2022-11-15T16:10:28;11.70;92.50
40257;DHT22;25977;45.462;9.210;2022-11-15T16:12:55;11.90;92.20
40257;DHT22;25977;45.462;9.210;2022-11-15T16:15:23;11.90;92.10
40257;DHT22;25977;45.462;9.210;2022-11-15T16:17:55;11.90;92.20
40257;DHT22;25977;45.462;9.210;2022-11-15T16:20:38;12.00;92.10
40257;DHT22;25977;45.462;9.210;2022-11-15T16:23:07;12.00;92.10
40257;DHT22;25977;45.462;9.210;2022-11-15T16:28:31;12.00;92.20
40257;DHT22;25977;45.462;9.210;2022-11-15T16:31:01;12.00;92.20
40257;DHT22;25977;45.462;9.210;2022-11-15T16:33:27;12.00;92.20
40257;DHT22;25977;45.462;9.210;2022-11-15T16:35:52;11.90;92.20
40257;DHT22;25977;45.462;9.210;2022-11-15T16:38:18;12.00;92.30
40257;DHT22;25977;45.462;9.210;2022-11-15T16:40:44;11.90;92.40
40257;DHT22;25977;45.462;9.210;2022-11-15T16:43:10;11.80;92.50
40257;DHT22;25977;45.462;9.210;2022-11-15T16:45:36;11.70;92.60
40257;DHT22;25977;45.462;9.210;2022-11-15T16:48:02;11.70;92.90
40257;DHT22;25977;45.462;9.210;2022-11-15T16:50:30;11.80;92.50
40257;DHT22;25977;45.462;9.210;2022-11-15T16:52:58;11.90;92.40
40257;DHT22;25977;45.462;9.210;2022-11-15T16:55:26;12.00;92.30
40257;DHT22;25977;45.462;9.210;2022-11-15T16:57:53;12.00;92.20
40257;DHT22;25977;45.462;9.210;2022-11-15T17:00:20;12.00;92.10
40257;DHT22;25977;45.462;9.210;2022-11-15T17:02:48;12.00;92.20
40257;DHT22;25977;45.462;9.210;2022-11-15T17:05:18;12.00;92.20
40257;DHT22;25977;45.462;9.210;2022-11-15T17:07:47;11.80;92.30
40257;DHT22;25977;45.462;9.210;2022-11-15T17:10:19;11.60;92.50
40257;DHT22;25977;45.462;9.210;2022-11-15T17:12:44;11.80;92.60
40257;DHT22;25977;45.462;9.210;2022-11-15T17:15:12;11.70;92.60
40257;DHT22;25977;45.462;9.210;2022-11-15T17:17:38;11.70;92.80
40257;DHT22;25977;45.462;9.210;2022-11-15T17:20:05;11.70;92.80
40257;DHT22;25977;45.462;9.210;2022-11-15T17:22:37;11.80;92.60
40257;DHT22;25977;45.462;9.210;2022-11-15T17:25:03;11.90;92.50
40257;DHT22;25977;45.462;9.210;2022-11-15T17:27:30;12.00;92.50
40257;DHT22;25977;45.462;9.210;2022-11-15T17:29:56;11.90;92.80
40257;DHT22;25977;45.462;9.210;2022-11-15T17:32:22;11.90;92.60
40257;DHT22;25977;45.462;9.210;2022-11-15T17:34:47;12.00;92.50
40257;DHT22;25977;45.462;9.210;2022-11-15T17:37:13;12.00;92.50
40257;DHT22;25977;45.462;9.210;2022-11-15T17:39:39;11.80;92.50
40257;DHT22;25977;45.462;9.210;2022-11-15T17:42:04;11.80;92.70
40257;DHT22;25977;45.462;9.210;2022-11-15T17:44:31;11.40;93.00
40257;DHT22;25977;45.462;9.210;2022-11-15T17:46:56;11.30;93.50
40257;DHT22;25977;45.462;9.210;2022-11-15T17:49:22;11.50;93.40
40257;DHT22;25977;45.462;9.210;2022-11-15T17:51:48;11.70;93.20
40257;DHT22;25977;45.462;9.210;2022-11-15T17:54:14;11.70;92.90
40257;DHT22;25977;45.462;9.210;2022-11-15T17:56:40;11.60;93.20
40257;DHT22;25977;45.462;9.210;2022-11-15T17:59:06;11.80;93.00
40257;DHT22;25977;45.462;9.210;2022-11-15T18:01:34;11.80;92.90
40257;DHT22;25977;45.462;9.210;2022-11-15T18:04:02;11.90;92.80
40257;DHT22;25977;45.462;9.210;2022-11-15T18:06:31;11.90;92.80
40257;DHT22;25977;45.462;9.210;2022-11-15T18:08:57;11.80;92.80
40257;DHT22;25977;45.462;9.210;2022-11-15T18:11:35;11.90;92.80
40257;DHT22;25977;45.462;9.210;2022-11-15T18:14:05;11.90;92.90
40257;DHT22;25977;45.462;9.210;2022-11-15T18:16:33;11.80;92.90
40257;DHT22;25977;45.462;9.210;2022-11-15T18:18:59;11.80;93.00
40257;DHT22;25977;45.462;9.210;2022-11-15T18:21:27;11.80;93.00
40257;DHT22;25977;45.462;9.210;2022-11-15T18:23:56;11.80;93.10
40257;DHT22;25977;45.462;9.210;2022-11-15T18:26:23;11.80;93.10
40257;DHT22;25977;45.462;9.210;2022-11-15T18:28:53;11.70;93.30
40257;DHT22;25977;45.462;9.210;2022-11-15T18:31:24;11.70;93.40
40257;DHT22;25977;45.462;9.210;2022-11-15T18:33:50;11.70;93.20
40257;DHT22;25977;45.462;9.210;2022-11-15T18:36:21;11.70;93.30
40257;DHT22;25977;45.462;9.210;2022-11-15T18:38:52;11.60;93.30
40257;DHT22;25977;45.462;9.210;2022-11-15T18:41:18;11.60;93.60
40257;DHT22;25977;45.462;9.210;2022-11-15T18:43:49;11.70;93.60
40257;DHT22;25977;45.462;9.210;2022-11-15T18:46:17;11.70;93.40
40257;DHT22;25977;45.462;9.210;2022-11-15T18:48:44;11.80;93.40
40257;DHT22;25977;45.462;9.210;2022-11-15T18:51:12;11.80;93.40
40257;DHT22;25977;45.462;9.210;2022-11-15T18:53:39;11.80;93.40
40257;DHT22;25977;45.462;9.210;2022-11-15T18:56:09;11.70;93.40
40257;DHT22;25977;45.462;9.210;2022-11-15T18:58:39;11.80;93.50
40257;DHT22;25977;45.462;9.210;2022-11-15T19:01:12;11.80;93.30
40257;DHT22;25977;45.462;9.210;2022-11-15T19:03:40;11.80;93.30
40257;DHT22;25977;45.462;9.210;2022-11-15T19:06:14;11.80;93.20
40257;DHT22;25977;45.462;9.210;2022-11-15T19:08:41;11.90;93.20
40257;DHT22;25977;45.462;9.210;2022-11-15T19:11:11;12.00;93.10
40257;DHT22;25977;45.462;9.210;2022-11-15T19:13:38;12.00;93.20